createdAt,value
2022-12-31T00:01:23.936Z,24.74
2022-12-31T00:03:51.531Z,24.74
2022-12-31T00:06:22.432Z,24.72
2022-12-31T00:08:50.651Z,24.74
2022-12-31T00:11:19.263Z,24.74
2022-12-31T00:13:47.151Z,24.75
2022-12-31T00:16:15.974Z,24.75
2022-12-31T00:18:44.472Z,24.73
2022-12-31T00:21:11.467Z,24.71
2022-12-31T00:23:38.446Z,24.71
2022-12-31T00:26:06.973Z,24.71
2022-12-31T00:28:36.478Z,24.71
2022-12-31T00:31:08.287Z,24.70
2022-12-31T00:33:35.236Z,24.69
2022-12-31T00:36:07.538Z,24.70
2022-12-31T00:38:34.704Z,24.70
2022-12-31T00:41:01.602Z,24.70
2022-12-31T00:43:28.638Z,24.71
2022-12-31T00:45:57.034Z,24.71
2022-12-31T00:48:23.979Z,24.69
2022-12-31T00:50:50.999Z,24.70
2022-12-31T00:53:17.830Z,24.67
2022-12-31T00:55:44.671Z,24.67
2022-12-31T00:58:11.502Z,24.67
2022-12-31T01:00:39.064Z,24.67
2022-12-31T01:03:08.003Z,24.69
2022-12-31T01:05:36.551Z,24.67
2022-12-31T01:08:03.950Z,24.67
2022-12-31T01:10:51.052Z,24.67
2022-12-31T01:13:17.914Z,24.66
2022-12-31T01:15:44.853Z,24.66
2022-12-31T01:18:13.170Z,24.65
2022-12-31T01:20:42.283Z,24.65
2022-12-31T01:23:10.993Z,24.64
2022-12-31T01:25:39.858Z,24.65
2022-12-31T01:28:07.267Z,24.67
2022-12-31T01:30:34.178Z,24.65
2022-12-31T01:33:01.032Z,24.65
2022-12-31T01:35:29.211Z,24.67
2022-12-31T01:37:56.081Z,24.66
2022-12-31T01:40:22.923Z,24.66
2022-12-31T01:42:55.180Z,24.67
2022-12-31T01:45:22.265Z,24.66
2022-12-31T01:47:51.964Z,24.65
2022-12-31T01:50:22.765Z,24.62
2022-12-31T01:52:55.593Z,24.56
2022-12-31T01:55:28.053Z,24.52
2022-12-31T01:58:01.219Z,24.54
2022-12-31T02:00:28.299Z,24.58
2022-12-31T02:02:55.277Z,24.61
2022-12-31T02:05:26.617Z,24.62
2022-12-31T02:07:55.199Z,24.59
2022-12-31T02:10:22.158Z,24.60
2022-12-31T02:12:49.246Z,24.59
2022-12-31T02:15:17.147Z,24.57
2022-12-31T02:17:55.140Z,24.57
2022-12-31T02:20:52.406Z,24.57
2022-12-31T02:23:44.776Z,24.58
2022-12-31T02:26:55.883Z,24.58
2022-12-31T02:29:59.110Z,24.56
2022-12-31T02:32:37.542Z,24.53
2022-12-31T02:35:10.092Z,24.54
2022-12-31T02:37:40.775Z,24.57
2022-12-31T02:40:11.642Z,24.56
2022-12-31T02:42:38.536Z,24.56
2022-12-31T02:45:06.716Z,24.56
2022-12-31T02:47:47.605Z,24.56
2022-12-31T02:50:29.259Z,24.57
2022-12-31T02:53:13.943Z,24.54
2022-12-31T02:55:49.257Z,24.54
2022-12-31T02:58:44.492Z,24.57
2022-12-31T03:01:33.676Z,24.57
2022-12-31T03:04:22.999Z,24.55
2022-12-31T03:06:50.536Z,24.55
2022-12-31T03:09:17.412Z,24.55
2022-12-31T03:12:02.921Z,24.53
2022-12-31T03:14:29.804Z,24.47
2022-12-31T03:16:56.665Z,24.46
2022-12-31T03:19:42.957Z,24.46
2022-12-31T03:22:30.027Z,24.46
2022-12-31T03:25:18.712Z,24.45
2022-12-31T03:27:47.026Z,24.48
2022-12-31T03:30:15.353Z,24.54
2022-12-31T03:32:43.208Z,24.53
2022-12-31T03:35:13.223Z,24.55
2022-12-31T03:37:41.659Z,24.56
2022-12-31T03:40:11.112Z,24.54
2022-12-31T03:42:37.991Z,24.56
2022-12-31T03:45:05.971Z,24.54
2022-12-31T03:47:33.046Z,24.55
2022-12-31T03:49:59.914Z,24.56
2022-12-31T03:52:28.253Z,24.55
2022-12-31T03:54:55.101Z,24.56
2022-12-31T03:57:22.065Z,24.57
2022-12-31T03:59:48.968Z,24.56
2022-12-31T04:02:16.325Z,24.56
2022-12-31T04:04:43.342Z,24.56
2022-12-31T04:07:10.260Z,24.56
2022-12-31T04:09:38.465Z,24.55
2022-12-31T04:12:06.017Z,24.55
2022-12-31T04:14:32.870Z,24.56
2022-12-31T04:17:00.103Z,24.55
2022-12-31T04:19:26.931Z,24.54
2022-12-31T04:21:53.774Z,24.55
2022-12-31T04:24:20.650Z,24.56
2022-12-31T04:26:48.900Z,24.56
2022-12-31T04:29:15.752Z,24.55
2022-12-31T04:31:42.981Z,24.56
2022-12-31T04:34:09.891Z,24.56
2022-12-31T04:36:36.778Z,24.55
2022-12-31T04:39:03.806Z,24.54
2022-12-31T04:41:30.722Z,24.56
2022-12-31T04:43:59.950Z,24.55
2022-12-31T04:46:29.628Z,24.56
2022-12-31T04:48:57.030Z,24.56
2022-12-31T04:51:25.069Z,24.56
2022-12-31T04:53:52.164Z,24.55
2022-12-31T04:56:19.041Z,24.52
2022-12-31T04:58:45.918Z,24.55
2022-12-31T05:01:15.065Z,24.54
2022-12-31T05:03:42.461Z,24.54
2022-12-31T05:06:12.927Z,24.53
2022-12-31T05:08:40.200Z,24.55
2022-12-31T05:11:07.346Z,24.53
2022-12-31T05:13:34.760Z,24.53
2022-12-31T05:16:02.200Z,24.47
2022-12-31T05:18:31.563Z,24.46
2022-12-31T05:20:58.776Z,24.48
2022-12-31T05:23:26.495Z,24.45
2022-12-31T05:25:53.513Z,24.44
2022-12-31T05:28:20.774Z,24.44
2022-12-31T05:30:49.210Z,24.45
2022-12-31T05:33:16.154Z,24.45
2022-12-31T05:35:44.384Z,24.46
2022-12-31T05:38:11.801Z,24.45
2022-12-31T05:40:38.669Z,24.43
2022-12-31T05:43:05.643Z,24.41
2022-12-31T05:45:32.495Z,24.42
2022-12-31T05:47:59.365Z,24.42
2022-12-31T05:50:26.448Z,24.40
2022-12-31T05:52:57.635Z,24.41
2022-12-31T05:55:24.747Z,24.39
2022-12-31T05:57:51.638Z,24.40
2022-12-31T06:00:18.633Z,24.41
2022-12-31T06:02:45.764Z,24.41
2022-12-31T06:05:12.785Z,24.41
2022-12-31T06:07:39.718Z,24.42
2022-12-31T06:10:08.849Z,24.41
2022-12-31T06:12:35.967Z,24.46
2022-12-31T06:15:03.246Z,24.50
2022-12-31T06:17:32.463Z,24.51
2022-12-31T06:19:59.859Z,24.51
2022-12-31T06:22:26.906Z,24.52
2022-12-31T06:24:54.299Z,24.51
2022-12-31T06:27:22.534Z,24.52
2022-12-31T06:29:49.529Z,24.53
2022-12-31T06:32:16.373Z,24.54
2022-12-31T06:34:43.326Z,24.52
2022-12-31T06:37:10.233Z,24.52
2022-12-31T06:39:37.143Z,24.53
2022-12-31T06:42:04.254Z,24.52
2022-12-31T06:44:32.523Z,24.53
2022-12-31T06:46:59.337Z,24.55
2022-12-31T06:49:26.211Z,24.58
2022-12-31T06:51:53.031Z,24.62
2022-12-31T06:54:20.138Z,24.64
2022-12-31T06:56:47.516Z,24.67
2022-12-31T06:59:24.440Z,24.70
2022-12-31T07:02:05.241Z,24.75
2022-12-31T07:04:51.708Z,24.77
2022-12-31T07:07:26.249Z,24.82
2022-12-31T07:10:00.269Z,24.86
2022-12-31T07:12:46.104Z,24.91
2022-12-31T07:15:16.747Z,24.95
2022-12-31T07:17:56.785Z,25.00
2022-12-31T07:20:24.363Z,25.05
2022-12-31T07:22:51.820Z,25.09
2022-12-31T07:25:19.694Z,25.13
2022-12-31T07:28:08.587Z,25.17
2022-12-31T07:30:42.825Z,25.23
2022-12-31T07:33:31.574Z,25.27
2022-12-31T07:36:12.064Z,25.31
2022-12-31T07:38:48.487Z,25.34
2022-12-31T07:41:22.862Z,25.39
2022-12-31T07:43:59.818Z,25.41
2022-12-31T07:46:33.727Z,25.45
2022-12-31T07:49:02.942Z,25.49
2022-12-31T07:51:30.261Z,25.52
2022-12-31T07:53:57.134Z,25.55
2022-12-31T07:56:24.058Z,25.59
2022-12-31T07:59:08.405Z,25.61
2022-12-31T08:01:43.577Z,25.65
2022-12-31T08:04:26.635Z,25.67
2022-12-31T08:07:02.632Z,25.69
2022-12-31T08:09:40.953Z,25.71
2022-12-31T08:12:08.822Z,25.73
2022-12-31T08:14:43.464Z,25.76
2022-12-31T08:17:12.707Z,25.76
2022-12-31T08:19:43.144Z,25.80
2022-12-31T08:22:30.824Z,25.81
2022-12-31T08:25:08.221Z,25.81
2022-12-31T08:27:42.945Z,25.83
2022-12-31T08:30:13.583Z,25.83
2022-12-31T08:32:46.598Z,25.85
2022-12-31T08:35:28.221Z,25.85
2022-12-31T08:38:01.628Z,25.87
2022-12-31T08:40:47.325Z,25.85
2022-12-31T08:43:27.200Z,25.86
2022-12-31T08:45:54.467Z,25.88
2022-12-31T08:48:29.873Z,25.89
2022-12-31T08:50:58.851Z,25.89
2022-12-31T08:53:26.221Z,25.88
2022-12-31T08:55:57.763Z,25.89
2022-12-31T08:58:39.180Z,25.90
2022-12-31T09:01:07.191Z,25.90
2022-12-31T09:03:52.467Z,25.89
2022-12-31T09:06:29.860Z,25.89
2022-12-31T09:09:06.465Z,25.89
2022-12-31T09:11:48.063Z,25.89
2022-12-31T09:14:41.708Z,25.91
2022-12-31T09:17:24.183Z,25.92
2022-12-31T09:19:51.916Z,25.92
2022-12-31T09:22:20.698Z,25.93
2022-12-31T09:24:48.440Z,25.94
2022-12-31T09:27:27.541Z,25.94
2022-12-31T09:30:02.091Z,25.93
2022-12-31T09:32:40.026Z,25.95
2022-12-31T09:35:16.072Z,25.94
2022-12-31T09:37:47.307Z,25.94
2022-12-31T09:40:48.091Z,25.92
2022-12-31T09:44:01.476Z,25.91
2022-12-31T09:46:51.059Z,25.90
2022-12-31T09:49:48.606Z,25.89
2022-12-31T09:52:24.889Z,25.88
2022-12-31T09:54:59.758Z,25.88
2022-12-31T09:57:37.325Z,25.88
2022-12-31T10:00:09.928Z,25.87
2022-12-31T10:03:00.682Z,25.86
2022-12-31T10:05:51.558Z,25.83
2022-12-31T10:08:32.407Z,25.82
2022-12-31T10:11:05.688Z,25.79
2022-12-31T10:13:47.589Z,25.78
2022-12-31T10:16:33.995Z,25.76
2022-12-31T10:19:39.695Z,25.74
2022-12-31T10:22:24.025Z,25.74
2022-12-31T10:25:14.631Z,25.72
2022-12-31T10:27:51.663Z,25.71
2022-12-31T10:30:20.576Z,25.70
2022-12-31T10:32:58.982Z,25.70
2022-12-31T10:35:31.284Z,25.68
2022-12-31T10:38:11.397Z,25.67
2022-12-31T10:41:01.797Z,25.64
2022-12-31T10:44:04.079Z,25.67
2022-12-31T10:47:18.180Z,25.64
2022-12-31T10:50:07.717Z,25.60
2022-12-31T10:53:04.376Z,25.55
2022-12-31T10:56:09.422Z,25.49
2022-12-31T10:59:10.894Z,25.46
2022-12-31T11:01:49.557Z,25.47
2022-12-31T11:05:13.280Z,25.48
2022-12-31T11:08:02.877Z,25.50
2022-12-31T11:11:03.458Z,25.50
2022-12-31T11:14:04.788Z,25.53
2022-12-31T11:16:59.869Z,25.53
2022-12-31T11:19:37.314Z,25.52
2022-12-31T11:22:35.572Z,25.52
2022-12-31T11:25:18.968Z,25.52
2022-12-31T11:28:10.497Z,25.52
2022-12-31T11:30:41.866Z,25.53
2022-12-31T11:33:24.476Z,25.50
2022-12-31T11:36:04.524Z,25.49
2022-12-31T11:38:36.731Z,25.49
2022-12-31T11:41:07.863Z,25.48
2022-12-31T11:43:39.619Z,25.47
2022-12-31T11:46:29.904Z,25.45
2022-12-31T11:49:09.626Z,25.41
2022-12-31T11:51:58.018Z,25.40
2022-12-31T11:54:46.017Z,25.39
2022-12-31T11:57:22.485Z,25.38
2022-12-31T11:59:52.507Z,25.37
2022-12-31T12:02:26.803Z,25.37
2022-12-31T12:04:57.861Z,25.37
2022-12-31T12:07:25.451Z,25.34
2022-12-31T12:09:54.485Z,25.33
2022-12-31T12:12:21.968Z,25.31
2022-12-31T12:14:53.710Z,25.32
2022-12-31T12:17:32.147Z,25.31
2022-12-31T12:20:03.273Z,25.30
2022-12-31T12:22:31.361Z,25.28
2022-12-31T12:25:03.761Z,25.28
2022-12-31T12:27:32.673Z,25.28
2022-12-31T12:30:08.695Z,25.27
2022-12-31T12:32:37.053Z,25.25
2022-12-31T12:35:14.336Z,25.22
2022-12-31T12:37:41.223Z,25.22
2022-12-31T12:40:19.567Z,25.22
2022-12-31T12:42:48.065Z,25.21
2022-12-31T12:45:17.325Z,25.18
2022-12-31T12:47:47.990Z,25.19
2022-12-31T12:50:17.687Z,25.18
2022-12-31T12:53:25.947Z,25.18
2022-12-31T12:56:04.662Z,25.16
2022-12-31T12:58:44.779Z,25.14
2022-12-31T13:01:24.049Z,25.14
2022-12-31T13:04:34.599Z,25.14
2022-12-31T13:07:15.067Z,25.10
2022-12-31T13:09:56.915Z,25.10
2022-12-31T13:12:49.222Z,25.09
2022-12-31T13:15:24.941Z,25.09
2022-12-31T13:18:02.553Z,25.08
2022-12-31T13:20:36.592Z,25.07
2022-12-31T13:23:14.713Z,25.07
2022-12-31T13:25:56.090Z,25.05
2022-12-31T13:28:24.764Z,25.07
2022-12-31T13:31:00.418Z,25.05
2022-12-31T13:33:36.269Z,25.05
2022-12-31T13:36:07.891Z,25.04
2022-12-31T13:38:38.600Z,25.04
2022-12-31T13:41:12.307Z,25.04
2022-12-31T13:43:50.697Z,25.04
2022-12-31T13:46:23.598Z,25.03
2022-12-31T13:48:53.735Z,25.04
2022-12-31T13:51:31.267Z,25.03
2022-12-31T13:54:03.761Z,25.03
2022-12-31T13:56:36.916Z,25.02
2022-12-31T13:59:13.477Z,25.01
2022-12-31T14:01:46.621Z,25.01
2022-12-31T14:04:18.868Z,25.02
2022-12-31T14:06:51.941Z,25.00
2022-12-31T14:09:23.625Z,24.99
2022-12-31T14:12:07.709Z,25.00
2022-12-31T14:14:45.583Z,24.98
2022-12-31T14:17:21.317Z,24.97
2022-12-31T14:19:59.382Z,24.99
2022-12-31T14:22:36.215Z,24.97
2022-12-31T14:25:06.015Z,24.98
2022-12-31T14:27:39.300Z,24.97
2022-12-31T14:30:13.437Z,24.96
2022-12-31T14:33:21.136Z,24.98
2022-12-31T14:36:05.299Z,24.95
2022-12-31T14:38:50.146Z,24.96
2022-12-31T14:41:33.177Z,24.94
2022-12-31T14:44:10.672Z,24.95
2022-12-31T14:46:52.014Z,24.94
2022-12-31T14:49:35.554Z,24.95
2022-12-31T14:52:22.362Z,24.94
2022-12-31T14:55:00.423Z,24.92
2022-12-31T14:57:54.453Z,24.90
2022-12-31T15:00:30.753Z,24.91
2022-12-31T15:03:00.063Z,24.91
2022-12-31T15:05:29.293Z,24.92
2022-12-31T15:08:09.391Z,24.96
2022-12-31T15:10:50.853Z,24.99
2022-12-31T15:13:23.635Z,25.02
2022-12-31T15:16:24.448Z,25.03
2022-12-31T15:19:13.270Z,25.04
2022-12-31T15:21:54.918Z,25.08
2022-12-31T15:24:23.883Z,25.09
2022-12-31T15:26:54.615Z,25.14
2022-12-31T15:29:28.908Z,25.17
2022-12-31T15:31:59.028Z,25.20
2022-12-31T15:34:29.681Z,25.22
2022-12-31T15:36:58.686Z,25.26
2022-12-31T15:39:36.829Z,25.28
2022-12-31T15:42:49.218Z,25.32
2022-12-31T15:45:23.071Z,25.31
2022-12-31T15:47:56.609Z,25.32
2022-12-31T15:50:25.372Z,25.31
2022-12-31T15:52:55.218Z,25.31
2022-12-31T15:55:29.173Z,25.29
2022-12-31T15:58:03.295Z,25.27
2022-12-31T16:00:43.648Z,25.25
2022-12-31T16:03:21.242Z,25.22
2022-12-31T16:05:48.861Z,25.20
2022-12-31T16:08:20.050Z,25.20
2022-12-31T16:10:47.341Z,25.18
2022-12-31T16:13:21.744Z,25.19
2022-12-31T16:15:51.897Z,25.19
2022-12-31T16:18:23.073Z,25.16
2022-12-31T16:20:51.906Z,25.15
2022-12-31T16:23:23.001Z,25.11
2022-12-31T16:25:51.964Z,25.09
2022-12-31T16:28:25.085Z,25.08
2022-12-31T16:31:00.273Z,25.06
2022-12-31T16:33:27.365Z,25.04
2022-12-31T16:35:56.567Z,25.03
2022-12-31T16:38:30.843Z,25.03
2022-12-31T16:41:16.042Z,25.01
2022-12-31T16:43:45.393Z,25.01
2022-12-31T16:46:18.120Z,25.00
2022-12-31T16:48:50.623Z,24.98
2022-12-31T16:51:21.199Z,24.95
2022-12-31T16:53:49.278Z,24.93
2022-12-31T16:56:24.191Z,24.93
2022-12-31T16:58:59.382Z,24.92
2022-12-31T17:01:30.418Z,24.92
2022-12-31T17:04:00.729Z,24.93
2022-12-31T17:06:28.479Z,24.91
2022-12-31T17:09:10.033Z,24.90
2022-12-31T17:11:43.367Z,24.90
2022-12-31T17:14:16.080Z,24.90
2022-12-31T17:17:01.428Z,24.87
2022-12-31T17:19:37.653Z,24.88
2022-12-31T17:22:07.905Z,24.87
2022-12-31T17:24:35.796Z,24.85
2022-12-31T17:27:05.034Z,24.84
2022-12-31T17:29:34.224Z,24.85
2022-12-31T17:32:05.477Z,24.85
2022-12-31T17:34:34.155Z,24.85
2022-12-31T17:37:18.821Z,24.84
2022-12-31T17:39:48.431Z,24.82
2022-12-31T17:42:28.216Z,24.82
2022-12-31T17:44:59.985Z,24.80
2022-12-31T17:47:34.793Z,24.80
2022-12-31T17:50:16.507Z,24.80
2022-12-31T17:52:43.378Z,24.80
2022-12-31T17:55:10.210Z,24.79
2022-12-31T17:57:38.053Z,24.79
2022-12-31T18:00:07.648Z,24.80
2022-12-31T18:02:39.356Z,24.78
2022-12-31T18:05:13.758Z,24.77
2022-12-31T18:07:40.765Z,24.77
2022-12-31T18:10:08.474Z,24.77
2022-12-31T18:12:36.273Z,24.76
2022-12-31T18:15:03.645Z,24.77
2022-12-31T18:17:33.352Z,24.76
2022-12-31T18:20:05.180Z,24.75
2022-12-31T18:22:33.135Z,24.76
2022-12-31T18:24:59.987Z,24.77
2022-12-31T18:27:27.112Z,24.76
2022-12-31T18:29:55.760Z,24.76
2022-12-31T18:32:29.763Z,24.76
2022-12-31T18:34:58.074Z,24.75
2022-12-31T18:37:27.535Z,24.72
2022-12-31T18:39:54.354Z,24.73
2022-12-31T18:42:25.625Z,24.72
2022-12-31T18:44:52.547Z,24.74
2022-12-31T18:47:20.207Z,24.75
2022-12-31T18:49:48.621Z,24.73
2022-12-31T18:52:19.139Z,24.72
2022-12-31T18:54:46.540Z,24.72
2022-12-31T18:57:15.598Z,24.74
2022-12-31T18:59:42.811Z,24.70
2022-12-31T19:02:14.762Z,24.71
2022-12-31T19:04:41.664Z,24.72
2022-12-31T19:07:08.496Z,24.71
2022-12-31T19:09:45.925Z,24.69
2022-12-31T19:12:14.850Z,24.69
2022-12-31T19:14:41.927Z,24.70
2022-12-31T19:19:35.007Z,24.68
2022-12-31T19:22:02.948Z,24.69
2022-12-31T19:24:30.147Z,24.68
2022-12-31T19:27:00.503Z,24.68
2022-12-31T19:29:28.320Z,24.68
2022-12-31T19:31:55.329Z,24.68
2022-12-31T19:34:22.209Z,24.68
2022-12-31T19:36:49.217Z,24.67
2022-12-31T19:39:17.791Z,24.66
2022-12-31T19:41:45.303Z,24.65
2022-12-31T19:44:16.277Z,24.65
2022-12-31T19:46:43.155Z,24.64
2022-12-31T19:49:10.821Z,24.65
2022-12-31T19:51:37.717Z,24.68
2022-12-31T19:54:05.225Z,24.66
2022-12-31T19:56:32.277Z,24.65
2022-12-31T19:59:03.906Z,24.64
2022-12-31T20:01:32.369Z,24.65
2022-12-31T20:03:59.314Z,24.65
2022-12-31T20:06:26.259Z,24.64
2022-12-31T20:08:53.091Z,24.65
2022-12-31T20:11:22.331Z,24.65
2022-12-31T20:13:50.400Z,24.64
2022-12-31T20:16:20.115Z,24.65
2022-12-31T20:18:48.806Z,24.68
2022-12-31T20:21:18.299Z,24.68
2022-12-31T20:23:45.427Z,24.69
2022-12-31T20:26:12.568Z,24.72
2022-12-31T20:28:39.870Z,24.74
2022-12-31T20:31:07.639Z,24.75
2022-12-31T20:33:34.893Z,24.76
2022-12-31T20:36:04.066Z,24.79
2022-12-31T20:38:31.068Z,24.80
2022-12-31T20:41:03.033Z,24.81
2022-12-31T20:43:30.347Z,24.81
2022-12-31T20:45:57.203Z,24.79
2022-12-31T20:48:24.110Z,24.81
2022-12-31T20:50:54.662Z,24.80
2022-12-31T20:53:22.904Z,24.79
2022-12-31T20:55:49.771Z,24.79
2022-12-31T20:58:16.738Z,24.78
2022-12-31T21:00:47.820Z,24.78
2022-12-31T21:03:37.266Z,24.76
2022-12-31T21:06:02.329Z,24.76
2022-12-31T21:08:34.813Z,24.74
2022-12-31T21:11:02.607Z,24.74
2022-12-31T21:13:31.164Z,24.75
2022-12-31T21:15:58.098Z,24.75
2022-12-31T21:18:24.965Z,24.74
2022-12-31T21:20:52.936Z,24.73
2022-12-31T21:23:20.485Z,24.72
2022-12-31T21:25:50.322Z,24.73
2022-12-31T21:28:17.196Z,24.72
2022-12-31T21:30:44.073Z,24.72
2022-12-31T21:33:10.950Z,24.71
2022-12-31T21:35:45.586Z,24.72
2022-12-31T21:38:15.611Z,24.72
2022-12-31T21:40:43.846Z,24.71
2022-12-31T21:43:12.274Z,24.71
2022-12-31T21:45:39.378Z,24.71
2022-12-31T21:48:23.450Z,24.70
2022-12-31T21:50:52.351Z,24.72
2022-12-31T21:53:24.764Z,24.69
2022-12-31T21:56:11.645Z,24.70
2022-12-31T21:58:42.657Z,24.68
2022-12-31T22:01:33.852Z,24.67
2022-12-31T22:04:00.946Z,24.65
2022-12-31T22:06:28.162Z,24.66
2022-12-31T22:08:56.374Z,24.65
2022-12-31T22:11:25.125Z,24.67
2022-12-31T22:13:54.223Z,24.65
2022-12-31T22:16:21.853Z,24.67
2022-12-31T22:18:49.033Z,24.65
2022-12-31T22:21:20.059Z,24.65
2022-12-31T22:23:49.164Z,24.64
2022-12-31T22:26:18.223Z,24.64
2022-12-31T22:28:46.246Z,24.65
2022-12-31T22:31:15.878Z,24.65
2022-12-31T22:33:43.300Z,24.66
2022-12-31T22:36:13.280Z,24.65
2022-12-31T22:38:40.404Z,24.65
2022-12-31T22:41:09.210Z,24.63
2022-12-31T22:43:39.024Z,24.65
2022-12-31T22:46:07.643Z,24.65
2022-12-31T22:48:36.249Z,24.63
2022-12-31T22:51:03.421Z,24.64
2022-12-31T22:53:30.307Z,24.63
2022-12-31T22:55:57.271Z,24.62
2022-12-31T22:58:24.839Z,24.64
2022-12-31T23:00:52.594Z,24.64
2022-12-31T23:03:19.653Z,24.61
2022-12-31T23:05:51.003Z,24.62
2022-12-31T23:08:23.366Z,24.63
2022-12-31T23:11:05.727Z,24.63
2022-12-31T23:13:56.616Z,24.61
2022-12-31T23:16:43.037Z,24.58
2022-12-31T23:19:29.234Z,24.58
2022-12-31T23:22:16.323Z,24.57
2022-12-31T23:24:43.446Z,24.57
2022-12-31T23:27:11.573Z,24.58
2022-12-31T23:29:46.151Z,24.58
2022-12-31T23:32:14.420Z,24.60
2022-12-31T23:34:42.451Z,24.59
2022-12-31T23:37:10.721Z,24.59
2022-12-31T23:39:37.568Z,24.59
2022-12-31T23:42:04.655Z,24.59
2022-12-31T23:44:31.670Z,24.59
2022-12-31T23:46:58.617Z,24.59
2022-12-31T23:49:25.839Z,24.59
2022-12-31T23:51:52.783Z,24.59
2022-12-31T23:54:21.065Z,24.60
2022-12-31T23:56:47.938Z,24.59
2022-12-31T23:59:14.768Z,24.58
